sensor_id;sensor_type;location;lat;lon;timestamp;temperature;humidity
53410;DHT22;66590;50.734;4.246;2023-04-07T00:00:15;9.30;99.90
53410;DHT22;66590;50.734;4.246;2023-04-07T00:02:42;9.20;99.90
53410;DHT22;66590;50.734;4.246;2023-04-07T00:05:10;9.30;99.90
53410;DHT22;66590;50.734;4.246;2023-04-07T00:07:37;9.30;99.90
53410;DHT22;66590;50.734;4.246;2023-04-07T00:10:23;9.30;99.90
53410;DHT22;66590;50.734;4.246;2023-04-07T00:12:50;9.40;99.90
53410;DHT22;66590;50.734;4.246;2023-04-07T00:15:17;9.30;99.90
53410;DHT22;66590;50.734;4.246;2023-04-07T00:17:44;9.20;99.90
53410;DHT22;66590;50.734;4.246;2023-04-07T00:20:11;9.20;99.90
53410;DHT22;66590;50.734;4.246;2023-04-07T00:22:38;9.30;99.90
53410;DHT22;66590;50.734;4.246;2023-04-07T00:25:06;9.30;99.90
53410;DHT22;66590;50.734;4.246;2023-04-07T00:27:35;9.30;99.90
53410;DHT22;66590;50.734;4.246;2023-04-07T00:30:02;9.40;99.90
53410;DHT22;66590;50.734;4.246;2023-04-07T00:32:29;9.30;99.90
53410;DHT22;66590;50.734;4.246;2023-04-07T00:34:57;9.30;99.90
53410;DHT22;66590;50.734;4.246;2023-04-07T00:37:28;9.20;99.90
53410;DHT22;66590;50.734;4.246;2023-04-07T00:39:55;9.10;99.90
53410;DHT22;66590;50.734;4.246;2023-04-07T00:42:22;9.10;99.90
53410;DHT22;66590;50.734;4.246;2023-04-07T00:44:50;9.10;99.90
53410;DHT22;66590;50.734;4.246;2023-04-07T00:47:17;9.20;99.90
53410;DHT22;66590;50.734;4.246;2023-04-07T00:49:44;9.30;99.90
53410;DHT22;66590;50.734;4.246;2023-04-07T00:52:11;9.20;99.90
53410;DHT22;66590;50.734;4.246;2023-04-07T00:54:41;9.30;99.90
53410;DHT22;66590;50.734;4.246;2023-04-07T00:57:08;9.30;99.90
53410;DHT22;66590;50.734;4.246;2023-04-07T00:59:35;9.20;99.90
53410;DHT22;66590;50.734;4.246;2023-04-07T01:02:09;9.20;99.90
53410;DHT22;66590;50.734;4.246;2023-04-07T01:04:42;9.20;99.90
53410;DHT22;66590;50.734;4.246;2023-04-07T01:07:16;9.30;99.90
53410;DHT22;66590;50.734;4.246;2023-04-07T01:09:47;9.30;99.90
53410;DHT22;66590;50.734;4.246;2023-04-07T01:12:22;9.20;99.90
53410;DHT22;66590;50.734;4.246;2023-04-07T01:14:57;9.30;99.90
53410;DHT22;66590;50.734;4.246;2023-04-07T01:17:27;9.30;99.90
53410;DHT22;66590;50.734;4.246;2023-04-07T01:19:58;9.30;99.90
53410;DHT22;66590;50.734;4.246;2023-04-07T01:22:28;9.20;99.90
53410;DHT22;66590;50.734;4.246;2023-04-07T01:25:21;9.10;99.90
53410;DHT22;66590;50.734;4.246;2023-04-07T01:27:59;9.10;99.90
53410;DHT22;66590;50.734;4.246;2023-04-07T01:30:39;9.10;99.90
53410;DHT22;66590;50.734;4.246;2023-04-07T01:33:08;9.10;99.90
53410;DHT22;66590;50.734;4.246;2023-04-07T01:35:36;9.00;99.90
53410;DHT22;66590;50.734;4.246;2023-04-07T01:38:04;9.00;99.90
53410;DHT22;66590;50.734;4.246;2023-04-07T01:40:33;9.10;99.90
53410;DHT22;66590;50.734;4.246;2023-04-07T01:43:01;9.10;99.90
53410;DHT22;66590;50.734;4.246;2023-04-07T01:45:29;9.00;99.90
53410;DHT22;66590;50.734;4.246;2023-04-07T01:47:59;9.00;99.90
53410;DHT22;66590;50.734;4.246;2023-04-07T01:50:26;9.00;99.90
53410;DHT22;66590;50.734;4.246;2023-04-07T01:52:54;9.00;99.90
53410;DHT22;66590;50.734;4.246;2023-04-07T01:55:22;9.00;99.90
53410;DHT22;66590;50.734;4.246;2023-04-07T01:57:49;9.00;99.90
53410;DHT22;66590;50.734;4.246;2023-04-07T02:00:16;9.00;99.90
53410;DHT22;66590;50.734;4.246;2023-04-07T02:02:44;9.00;99.90
53410;DHT22;66590;50.734;4.246;2023-04-07T02:05:19;9.00;99.90
53410;DHT22;66590;50.734;4.246;2023-04-07T02:07:49;9.00;99.90
53410;DHT22;66590;50.734;4.246;2023-04-07T02:10:21;9.00;99.90
53410;DHT22;66590;50.734;4.246;2023-04-07T02:12:49;9.00;99.90
53410;DHT22;66590;50.734;4.246;2023-04-07T02:15:18;9.00;99.90
53410;DHT22;66590;50.734;4.246;2023-04-07T02:17:48;8.90;99.90
53410;DHT22;66590;50.734;4.246;2023-04-07T02:20:19;8.90;99.90
53410;DHT22;66590;50.734;4.246;2023-04-07T02:22:47;8.80;99.90
53410;DHT22;66590;50.734;4.246;2023-04-07T02:25:24;8.80;99.90
53410;DHT22;66590;50.734;4.246;2023-04-07T02:27:52;8.90;99.90
53410;DHT22;66590;50.734;4.246;2023-04-07T02:30:19;8.80;99.90
53410;DHT22;66590;50.734;4.246;2023-04-07T02:32:47;8.80;99.90
53410;DHT22;66590;50.734;4.246;2023-04-07T02:35:14;8.90;99.90
53410;DHT22;66590;50.734;4.246;2023-04-07T02:37:43;8.90;99.90
53410;DHT22;66590;50.734;4.246;2023-04-07T02:40:11;8.90;99.90
53410;DHT22;66590;50.734;4.246;2023-04-07T02:42:39;8.70;99.90
53410;DHT22;66590;50.734;4.246;2023-04-07T02:45:07;8.80;99.90
53410;DHT22;66590;50.734;4.246;2023-04-07T02:47:35;8.70;99.90
53410;DHT22;66590;50.734;4.246;2023-04-07T02:50:03;8.60;99.90
53410;DHT22;66590;50.734;4.246;2023-04-07T02:52:30;8.70;99.90
53410;DHT22;66590;50.734;4.246;2023-04-07T02:54:59;8.70;99.90
53410;DHT22;66590;50.734;4.246;2023-04-07T02:57:26;8.60;99.90
53410;DHT22;66590;50.734;4.246;2023-04-07T02:59:53;8.70;99.90
53410;DHT22;66590;50.734;4.246;2023-04-07T03:02:20;8.70;99.90
53410;DHT22;66590;50.734;4.246;2023-04-07T03:04:49;8.60;99.90
53410;DHT22;66590;50.734;4.246;2023-04-07T03:07:16;8.60;99.90
53410;DHT22;66590;50.734;4.246;2023-04-07T03:09:43;8.50;99.90
53410;DHT22;66590;50.734;4.246;2023-04-07T03:12:12;8.50;99.90
53410;DHT22;66590;50.734;4.246;2023-04-07T03:14:39;8.50;99.90
53410;DHT22;66590;50.734;4.246;2023-04-07T03:17:06;8.40;99.90
53410;DHT22;66590;50.734;4.246;2023-04-07T03:19:33;8.40;99.90
53410;DHT22;66590;50.734;4.246;2023-04-07T03:22:00;8.40;99.90
53410;DHT22;66590;50.734;4.246;2023-04-07T03:24:28;8.40;99.90
53410;DHT22;66590;50.734;4.246;2023-04-07T03:26:55;8.50;99.90
53410;DHT22;66590;50.734;4.246;2023-04-07T03:29:23;8.50;99.90
53410;DHT22;66590;50.734;4.246;2023-04-07T03:31:50;8.40;99.90
53410;DHT22;66590;50.734;4.246;2023-04-07T03:34:17;8.40;99.90
53410;DHT22;66590;50.734;4.246;2023-04-07T03:36:44;8.40;99.90
53410;DHT22;66590;50.734;4.246;2023-04-07T03:39:11;8.40;99.90
53410;DHT22;66590;50.734;4.246;2023-04-07T03:41:38;8.50;99.90
53410;DHT22;66590;50.734;4.246;2023-04-07T03:44:05;8.50;99.90
53410;DHT22;66590;50.734;4.246;2023-04-07T03:46:33;8.50;99.90
53410;DHT22;66590;50.734;4.246;2023-04-07T03:49:01;8.40;99.90
53410;DHT22;66590;50.734;4.246;2023-04-07T03:51:28;8.50;99.90
53410;DHT22;66590;50.734;4.246;2023-04-07T03:53:55;8.40;99.90
53410;DHT22;66590;50.734;4.246;2023-04-07T03:56:22;8.40;99.90
53410;DHT22;66590;50.734;4.246;2023-04-07T03:58:49;8.50;99.90
53410;DHT22;66590;50.734;4.246;2023-04-07T04:01:16;8.50;99.90
53410;DHT22;66590;50.734;4.246;2023-04-07T04:03:45;8.50;99.90
53410;DHT22;66590;50.734;4.246;2023-04-07T04:06:12;8.40;99.90
53410;DHT22;66590;50.734;4.246;2023-04-07T04:08:39;8.40;99.90
53410;DHT22;66590;50.734;4.246;2023-04-07T04:11:06;8.50;99.90
53410;DHT22;66590;50.734;4.246;2023-04-07T04:13:33;8.60;99.90
53410;DHT22;66590;50.734;4.246;2023-04-07T04:16:00;8.60;99.90
53410;DHT22;66590;50.734;4.246;2023-04-07T04:18:27;8.50;99.90
53410;DHT22;66590;50.734;4.246;2023-04-07T04:20:56;8.50;99.90
53410;DHT22;66590;50.734;4.246;2023-04-07T04:23:23;8.50;99.90
53410;DHT22;66590;50.734;4.246;2023-04-07T04:25:50;8.40;99.90
53410;DHT22;66590;50.734;4.246;2023-04-07T04:28:17;8.50;99.90
53410;DHT22;66590;50.734;4.246;2023-04-07T04:30:45;8.50;99.90
53410;DHT22;66590;50.734;4.246;2023-04-07T04:33:12;8.50;99.90
53410;DHT22;66590;50.734;4.246;2023-04-07T04:35:39;8.60;99.90
53410;DHT22;66590;50.734;4.246;2023-04-07T04:38:08;8.50;99.90
53410;DHT22;66590;50.734;4.246;2023-04-07T04:40:35;8.60;99.90
53410;DHT22;66590;50.734;4.246;2023-04-07T04:43:02;8.60;99.90
53410;DHT22;66590;50.734;4.246;2023-04-07T04:45:29;8.60;99.90
53410;DHT22;66590;50.734;4.246;2023-04-07T04:47:56;8.60;99.90
53410;DHT22;66590;50.734;4.246;2023-04-07T04:50:31;8.60;99.90
53410;DHT22;66590;50.734;4.246;2023-04-07T04:52:58;8.60;99.90
53410;DHT22;66590;50.734;4.246;2023-04-07T04:55:26;8.60;99.90
53410;DHT22;66590;50.734;4.246;2023-04-07T04:57:54;8.60;99.90
53410;DHT22;66590;50.734;4.246;2023-04-07T05:00:21;8.60;99.90
53410;DHT22;66590;50.734;4.246;2023-04-07T05:02:48;8.70;99.90
53410;DHT22;66590;50.734;4.246;2023-04-07T05:05:15;8.60;99.90
53410;DHT22;66590;50.734;4.246;2023-04-07T05:07:42;8.60;99.90
53410;DHT22;66590;50.734;4.246;2023-04-07T05:10:10;8.70;99.90
53410;DHT22;66590;50.734;4.246;2023-04-07T05:12:38;8.60;99.90
53410;DHT22;66590;50.734;4.246;2023-04-07T05:15:06;8.60;99.90
53410;DHT22;66590;50.734;4.246;2023-04-07T05:17:33;8.60;99.90
53410;DHT22;66590;50.734;4.246;2023-04-07T05:20:00;8.50;99.90
53410;DHT22;66590;50.734;4.246;2023-04-07T05:22:27;8.50;99.90
53410;DHT22;66590;50.734;4.246;2023-04-07T05:24:54;8.60;99.90
53410;DHT22;66590;50.734;4.246;2023-04-07T05:27:21;8.50;99.90
53410;DHT22;66590;50.734;4.246;2023-04-07T05:29:50;8.40;99.90
53410;DHT22;66590;50.734;4.246;2023-04-07T05:32:17;8.40;99.90
53410;DHT22;66590;50.734;4.246;2023-04-07T05:34:45;8.30;99.90
53410;DHT22;66590;50.734;4.246;2023-04-07T05:37:12;8.30;99.90
53410;DHT22;66590;50.734;4.246;2023-04-07T05:39:39;8.30;99.90
53410;DHT22;66590;50.734;4.246;2023-04-07T05:42:06;8.30;99.90
53410;DHT22;66590;50.734;4.246;2023-04-07T05:44:33;8.30;99.90
53410;DHT22;66590;50.734;4.246;2023-04-07T05:47:01;8.30;99.90
53410;DHT22;66590;50.734;4.246;2023-04-07T05:49:28;8.40;99.90
53410;DHT22;66590;50.734;4.246;2023-04-07T05:51:55;8.30;99.90
53410;DHT22;66590;50.734;4.246;2023-04-07T05:54:22;8.30;99.90
53410;DHT22;66590;50.734;4.246;2023-04-07T05:56:49;8.30;99.90
53410;DHT22;66590;50.734;4.246;2023-04-07T05:59:16;8.40;99.90
53410;DHT22;66590;50.734;4.246;2023-04-07T06:01:43;8.40;99.90
53410;DHT22;66590;50.734;4.246;2023-04-07T06:04:12;8.40;99.90
53410;DHT22;66590;50.734;4.246;2023-04-07T06:06:39;8.40;99.90
53410;DHT22;66590;50.734;4.246;2023-04-07T06:09:06;8.40;99.90
53410;DHT22;66590;50.734;4.246;2023-04-07T06:11:34;8.30;99.90
53410;DHT22;66590;50.734;4.246;2023-04-07T06:14:01;8.20;99.90
53410;DHT22;66590;50.734;4.246;2023-04-07T06:16:28;8.30;99.90
53410;DHT22;66590;50.734;4.246;2023-04-07T06:19:01;8.40;99.90
53410;DHT22;66590;50.734;4.246;2023-04-07T06:21:36;8.30;99.90
53410;DHT22;66590;50.734;4.246;2023-04-07T06:24:10;8.40;99.90
53410;DHT22;66590;50.734;4.246;2023-04-07T06:26:43;8.50;99.90
53410;DHT22;66590;50.734;4.246;2023-04-07T06:29:10;8.50;99.90
53410;DHT22;66590;50.734;4.246;2023-04-07T06:31:44;8.50;99.90
53410;DHT22;66590;50.734;4.246;2023-04-07T06:34:11;8.50;99.90
53410;DHT22;66590;50.734;4.246;2023-04-07T06:36:40;8.50;99.90
53410;DHT22;66590;50.734;4.246;2023-04-07T06:39:07;8.60;99.90
53410;DHT22;66590;50.734;4.246;2023-04-07T06:41:34;8.70;99.90
53410;DHT22;66590;50.734;4.246;2023-04-07T06:44:01;8.80;99.90
53410;DHT22;66590;50.734;4.246;2023-04-07T06:46:28;9.00;99.90
53410;DHT22;66590;50.734;4.246;2023-04-07T06:48:55;9.20;99.90
53410;DHT22;66590;50.734;4.246;2023-04-07T06:51:22;9.60;99.90
53410;DHT22;66590;50.734;4.246;2023-04-07T06:53:50;9.40;99.90
53410;DHT22;66590;50.734;4.246;2023-04-07T06:56:17;9.30;99.90
53410;DHT22;66590;50.734;4.246;2023-04-07T06:58:44;9.30;99.90
53410;DHT22;66590;50.734;4.246;2023-04-07T07:01:11;9.20;99.90
53410;DHT22;66590;50.734;4.246;2023-04-07T07:03:39;9.20;99.90
53410;DHT22;66590;50.734;4.246;2023-04-07T07:06:06;9.20;99.90
53410;DHT22;66590;50.734;4.246;2023-04-07T07:08:33;9.10;99.90
53410;DHT22;66590;50.734;4.246;2023-04-07T07:11:02;9.30;99.90
53410;DHT22;66590;50.734;4.246;2023-04-07T07:13:30;9.40;99.90
53410;DHT22;66590;50.734;4.246;2023-04-07T07:15:57;9.40;99.90
53410;DHT22;66590;50.734;4.246;2023-04-07T07:18:24;9.30;99.90
53410;DHT22;66590;50.734;4.246;2023-04-07T07:20:52;9.40;99.90
53410;DHT22;66590;50.734;4.246;2023-04-07T07:23:19;9.40;99.90
53410;DHT22;66590;50.734;4.246;2023-04-07T07:25:46;9.60;99.90
53410;DHT22;66590;50.734;4.246;2023-04-07T07:28:14;9.50;99.90
53410;DHT22;66590;50.734;4.246;2023-04-07T07:30:41;9.50;99.90
53410;DHT22;66590;50.734;4.246;2023-04-07T07:33:08;9.20;99.90
53410;DHT22;66590;50.734;4.246;2023-04-07T07:35:35;9.10;99.90
53410;DHT22;66590;50.734;4.246;2023-04-07T07:38:02;9.00;99.90
53410;DHT22;66590;50.734;4.246;2023-04-07T07:40:29;9.20;99.90
53410;DHT22;66590;50.734;4.246;2023-04-07T07:42:56;9.30;99.90
53410;DHT22;66590;50.734;4.246;2023-04-07T07:45:25;9.40;99.90
53410;DHT22;66590;50.734;4.246;2023-04-07T07:47:52;9.50;99.90
53410;DHT22;66590;50.734;4.246;2023-04-07T07:50:19;9.50;99.90
53410;DHT22;66590;50.734;4.246;2023-04-07T07:52:46;9.40;99.90
53410;DHT22;66590;50.734;4.246;2023-04-07T07:55:13;9.40;99.90
53410;DHT22;66590;50.734;4.246;2023-04-07T07:57:40;9.50;99.90
53410;DHT22;66590;50.734;4.246;2023-04-07T08:00:08;9.50;99.90
53410;DHT22;66590;50.734;4.246;2023-04-07T08:02:37;9.70;99.90
53410;DHT22;66590;50.734;4.246;2023-04-07T08:05:04;9.80;99.90
53410;DHT22;66590;50.734;4.246;2023-04-07T08:07:31;9.70;99.90
53410;DHT22;66590;50.734;4.246;2023-04-07T08:09:58;9.70;99.90
53410;DHT22;66590;50.734;4.246;2023-04-07T08:12:25;9.70;99.90
53410;DHT22;66590;50.734;4.246;2023-04-07T08:14:53;9.80;99.90
53410;DHT22;66590;50.734;4.246;2023-04-07T08:17:20;9.60;99.90
53410;DHT22;66590;50.734;4.246;2023-04-07T08:19:48;9.50;99.90
53410;DHT22;66590;50.734;4.246;2023-04-07T08:22:15;9.40;99.90
53410;DHT22;66590;50.734;4.246;2023-04-07T08:24:42;9.50;99.90
53410;DHT22;66590;50.734;4.246;2023-04-07T08:27:09;9.60;99.90
53410;DHT22;66590;50.734;4.246;2023-04-07T08:29:36;9.70;99.90
53410;DHT22;66590;50.734;4.246;2023-04-07T08:32:03;9.80;99.90
53410;DHT22;66590;50.734;4.246;2023-04-07T08:34:30;9.80;99.90
53410;DHT22;66590;50.734;4.246;2023-04-07T08:36:59;9.70;99.90
53410;DHT22;66590;50.734;4.246;2023-04-07T08:39:26;9.80;99.90
53410;DHT22;66590;50.734;4.246;2023-04-07T08:41:54;10.00;99.90
53410;DHT22;66590;50.734;4.246;2023-04-07T08:44:22;10.10;99.90
53410;DHT22;66590;50.734;4.246;2023-04-07T08:46:50;10.00;99.90
53410;DHT22;66590;50.734;4.246;2023-04-07T08:49:19;9.90;99.90
53410;DHT22;66590;50.734;4.246;2023-04-07T08:51:47;9.80;99.90
53410;DHT22;66590;50.734;4.246;2023-04-07T08:54:17;9.60;99.90
53410;DHT22;66590;50.734;4.246;2023-04-07T08:56:44;9.80;99.90
53410;DHT22;66590;50.734;4.246;2023-04-07T08:59:13;9.90;99.90
53410;DHT22;66590;50.734;4.246;2023-04-07T09:01:40;10.20;99.90
53410;DHT22;66590;50.734;4.246;2023-04-07T09:04:09;10.30;99.90
53410;DHT22;66590;50.734;4.246;2023-04-07T09:06:37;10.50;99.90
53410;DHT22;66590;50.734;4.246;2023-04-07T09:09:04;10.30;99.90
53410;DHT22;66590;50.734;4.246;2023-04-07T09:11:36;10.20;99.90
53410;DHT22;66590;50.734;4.246;2023-04-07T09:14:03;10.40;99.90
53410;DHT22;66590;50.734;4.246;2023-04-07T09:16:30;10.60;99.90
53410;DHT22;66590;50.734;4.246;2023-04-07T09:18:58;10.90;99.90
53410;DHT22;66590;50.734;4.246;2023-04-07T09:21:25;11.00;99.90
53410;DHT22;66590;50.734;4.246;2023-04-07T09:23:52;11.10;99.90
53410;DHT22;66590;50.734;4.246;2023-04-07T09:26:21;11.40;99.90
53410;DHT22;66590;50.734;4.246;2023-04-07T09:28:52;11.90;99.90
53410;DHT22;66590;50.734;4.246;2023-04-07T09:31:20;12.10;99.90
53410;DHT22;66590;50.734;4.246;2023-04-07T09:33:48;12.10;99.90
53410;DHT22;66590;50.734;4.246;2023-04-07T09:36:15;12.10;99.90
53410;DHT22;66590;50.734;4.246;2023-04-07T09:38:43;11.90;99.90
53410;DHT22;66590;50.734;4.246;2023-04-07T09:41:12;11.60;99.90
53410;DHT22;66590;50.734;4.246;2023-04-07T09:43:41;11.20;99.90
53410;DHT22;66590;50.734;4.246;2023-04-07T09:46:12;11.10;99.90
53410;DHT22;66590;50.734;4.246;2023-04-07T09:48:40;11.10;99.90
53410;DHT22;66590;50.734;4.246;2023-04-07T09:51:09;11.20;99.90
53410;DHT22;66590;50.734;4.246;2023-04-07T09:53:47;11.70;99.90
53410;DHT22;66590;50.734;4.246;2023-04-07T09:56:16;12.00;99.90
53410;DHT22;66590;50.734;4.246;2023-04-07T09:58:45;12.10;99.90
53410;DHT22;66590;50.734;4.246;2023-04-07T10:01:15;12.20;99.90
53410;DHT22;66590;50.734;4.246;2023-04-07T10:03:43;12.60;99.90
53410;DHT22;66590;50.734;4.246;2023-04-07T10:06:10;12.70;99.90
53410;DHT22;66590;50.734;4.246;2023-04-07T10:08:39;12.60;99.90
53410;DHT22;66590;50.734;4.246;2023-04-07T10:11:06;12.60;99.90
53410;DHT22;66590;50.734;4.246;2023-04-07T10:13:35;12.30;99.90
53410;DHT22;66590;50.734;4.246;2023-04-07T10:16:03;12.30;99.90
53410;DHT22;66590;50.734;4.246;2023-04-07T10:18:33;12.30;99.90
53410;DHT22;66590;50.734;4.246;2023-04-07T10:21:02;12.20;99.90
53410;DHT22;66590;50.734;4.246;2023-04-07T10:23:41;12.30;99.90
53410;DHT22;66590;50.734;4.246;2023-04-07T10:26:10;12.50;99.90
53410;DHT22;66590;50.734;4.246;2023-04-07T10:28:40;12.90;99.90
53410;DHT22;66590;50.734;4.246;2023-04-07T10:31:09;13.50;99.90
53410;DHT22;66590;50.734;4.246;2023-04-07T10:33:49;13.90;99.90
53410;DHT22;66590;50.734;4.246;2023-04-07T10:36:18;13.60;99.90
53410;DHT22;66590;50.734;4.246;2023-04-07T10:39:19;13.00;99.90
53410;DHT22;66590;50.734;4.246;2023-04-07T10:41:47;12.30;99.90
53410;DHT22;66590;50.734;4.246;2023-04-07T10:44:45;11.90;99.90
53410;DHT22;66590;50.734;4.246;2023-04-07T10:47:12;11.60;99.90
53410;DHT22;66590;50.734;4.246;2023-04-07T10:50:13;11.30;99.90
53410;DHT22;66590;50.734;4.246;2023-04-07T10:52:41;11.20;99.90
53410;DHT22;66590;50.734;4.246;2023-04-07T10:55:27;11.20;99.90
53410;DHT22;66590;50.734;4.246;2023-04-07T10:58:20;11.00;99.90
53410;DHT22;66590;50.734;4.246;2023-04-07T11:03:58;11.10;99.90
53410;DHT22;66590;50.734;4.246;2023-04-07T11:06:27;11.30;99.90
53410;DHT22;66590;50.734;4.246;2023-04-07T11:08:54;11.30;99.90
53410;DHT22;66590;50.734;4.246;2023-04-07T11:11:39;11.20;99.90
53410;DHT22;66590;50.734;4.246;2023-04-07T11:14:06;11.10;99.90
53410;DHT22;66590;50.734;4.246;2023-04-07T11:16:38;11.30;99.90
53410;DHT22;66590;50.734;4.246;2023-04-07T11:19:05;11.40;99.90
53410;DHT22;66590;50.734;4.246;2023-04-07T11:21:33;11.80;99.90
53410;DHT22;66590;50.734;4.246;2023-04-07T11:24:00;12.10;99.90
53410;DHT22;66590;50.734;4.246;2023-04-07T11:26:27;12.20;99.90
53410;DHT22;66590;50.734;4.246;2023-04-07T11:28:55;12.40;99.90
53410;DHT22;66590;50.734;4.246;2023-04-07T11:31:23;12.80;99.90
53410;DHT22;66590;50.734;4.246;2023-04-07T11:33:52;13.10;99.90
53410;DHT22;66590;50.734;4.246;2023-04-07T11:36:26;13.10;99.90
53410;DHT22;66590;50.734;4.246;2023-04-07T11:38:55;13.30;99.90
53410;DHT22;66590;50.734;4.246;2023-04-07T11:41:22;13.30;99.90
53410;DHT22;66590;50.734;4.246;2023-04-07T11:44:03;13.60;99.90
53410;DHT22;66590;50.734;4.246;2023-04-07T11:46:30;13.50;99.90
53410;DHT22;66590;50.734;4.246;2023-04-07T11:49:08;13.70;99.90
53410;DHT22;66590;50.734;4.246;2023-04-07T11:51:35;13.90;99.90
53410;DHT22;66590;50.734;4.246;2023-04-07T11:54:04;13.60;99.90
53410;DHT22;66590;50.734;4.246;2023-04-07T11:56:41;13.30;99.90
53410;DHT22;66590;50.734;4.246;2023-04-07T11:59:17;12.50;99.90
53410;DHT22;66590;50.734;4.246;2023-04-07T12:01:45;12.10;99.90
53410;DHT22;66590;50.734;4.246;2023-04-07T12:04:13;12.00;99.90
53410;DHT22;66590;50.734;4.246;2023-04-07T12:06:40;11.80;99.90
53410;DHT22;66590;50.734;4.246;2023-04-07T12:09:24;11.80;99.90
53410;DHT22;66590;50.734;4.246;2023-04-07T12:11:52;11.50;99.90
53410;DHT22;66590;50.734;4.246;2023-04-07T12:14:19;11.50;99.90
53410;DHT22;66590;50.734;4.246;2023-04-07T12:16:46;11.50;99.90
53410;DHT22;66590;50.734;4.246;2023-04-07T12:19:13;11.70;99.90
53410;DHT22;66590;50.734;4.246;2023-04-07T12:21:40;11.80;99.90
53410;DHT22;66590;50.734;4.246;2023-04-07T12:24:08;12.30;99.90
53410;DHT22;66590;50.734;4.246;2023-04-07T12:26:35;12.60;99.90
53410;DHT22;66590;50.734;4.246;2023-04-07T12:29:02;12.70;99.90
53410;DHT22;66590;50.734;4.246;2023-04-07T12:31:29;12.70;99.90
53410;DHT22;66590;50.734;4.246;2023-04-07T12:33:56;12.40;99.90
53410;DHT22;66590;50.734;4.246;2023-04-07T12:36:24;11.80;99.90
53410;DHT22;66590;50.734;4.246;2023-04-07T12:38:51;11.60;99.90
53410;DHT22;66590;50.734;4.246;2023-04-07T12:41:19;11.50;99.90
53410;DHT22;66590;50.734;4.246;2023-04-07T12:43:46;11.10;99.90
53410;DHT22;66590;50.734;4.246;2023-04-07T12:46:14;11.10;99.90
53410;DHT22;66590;50.734;4.246;2023-04-07T12:48:42;10.90;99.90
53410;DHT22;66590;50.734;4.246;2023-04-07T12:51:10;10.80;99.90
53410;DHT22;66590;50.734;4.246;2023-04-07T12:53:37;10.80;99.90
53410;DHT22;66590;50.734;4.246;2023-04-07T12:56:04;10.80;99.90
53410;DHT22;66590;50.734;4.246;2023-04-07T12:58:32;10.80;99.90
53410;DHT22;66590;50.734;4.246;2023-04-07T13:00:59;10.90;99.90
53410;DHT22;66590;50.734;4.246;2023-04-07T13:03:27;11.10;99.90
53410;DHT22;66590;50.734;4.246;2023-04-07T13:05:54;11.20;99.90
53410;DHT22;66590;50.734;4.246;2023-04-07T13:08:21;11.40;99.90
53410;DHT22;66590;50.734;4.246;2023-04-07T13:10:48;11.40;99.90
53410;DHT22;66590;50.734;4.246;2023-04-07T13:13:15;11.60;99.90
53410;DHT22;66590;50.734;4.246;2023-04-07T13:15:44;11.70;99.90
53410;DHT22;66590;50.734;4.246;2023-04-07T13:18:11;11.90;99.90
53410;DHT22;66590;50.734;4.246;2023-04-07T13:20:38;12.10;99.90
53410;DHT22;66590;50.734;4.246;2023-04-07T13:23:05;12.10;99.90
53410;DHT22;66590;50.734;4.246;2023-04-07T13:25:36;12.00;99.90
53410;DHT22;66590;50.734;4.246;2023-04-07T13:28:03;12.00;99.90
53410;DHT22;66590;50.734;4.246;2023-04-07T13:30:30;12.00;99.90
53410;DHT22;66590;50.734;4.246;2023-04-07T13:32:58;11.90;99.90
53410;DHT22;66590;50.734;4.246;2023-04-07T13:35:26;11.80;99.90
53410;DHT22;66590;50.734;4.246;2023-04-07T13:37:53;11.80;99.90
53410;DHT22;66590;50.734;4.246;2023-04-07T13:40:20;11.90;99.90
53410;DHT22;66590;50.734;4.246;2023-04-07T13:42:47;11.90;99.90
53410;DHT22;66590;50.734;4.246;2023-04-07T13:45:14;11.80;99.90
53410;DHT22;66590;50.734;4.246;2023-04-07T13:47:41;11.60;99.90
53410;DHT22;66590;50.734;4.246;2023-04-07T13:50:09;11.50;99.90
53410;DHT22;66590;50.734;4.246;2023-04-07T13:52:36;11.50;99.90
53410;DHT22;66590;50.734;4.246;2023-04-07T13:55:04;11.60;99.90
53410;DHT22;66590;50.734;4.246;2023-04-07T13:57:31;11.60;99.90
53410;DHT22;66590;50.734;4.246;2023-04-07T13:59:58;11.90;99.90
53410;DHT22;66590;50.734;4.246;2023-04-07T14:02:26;11.90;99.90
53410;DHT22;66590;50.734;4.246;2023-04-07T14:04:53;11.90;99.90
53410;DHT22;66590;50.734;4.246;2023-04-07T14:07:21;11.70;99.90
53410;DHT22;66590;50.734;4.246;2023-04-07T14:09:48;11.70;99.90
53410;DHT22;66590;50.734;4.246;2023-04-07T14:12:15;11.80;99.90
53410;DHT22;66590;50.734;4.246;2023-04-07T14:14:42;12.10;99.90
53410;DHT22;66590;50.734;4.246;2023-04-07T14:17:09;12.10;99.90
53410;DHT22;66590;50.734;4.246;2023-04-07T14:19:36;12.10;99.90
53410;DHT22;66590;50.734;4.246;2023-04-07T14:22:03;12.10;99.90
53410;DHT22;66590;50.734;4.246;2023-04-07T14:24:32;12.00;99.90
53410;DHT22;66590;50.734;4.246;2023-04-07T14:26:59;12.00;99.90
53410;DHT22;66590;50.734;4.246;2023-04-07T14:29:26;12.10;99.90
53410;DHT22;66590;50.734;4.246;2023-04-07T14:31:53;11.90;99.90
53410;DHT22;66590;50.734;4.246;2023-04-07T14:34:20;11.80;99.90
53410;DHT22;66590;50.734;4.246;2023-04-07T14:36:54;11.90;99.90
53410;DHT22;66590;50.734;4.246;2023-04-07T14:39:21;11.70;99.90
53410;DHT22;66590;50.734;4.246;2023-04-07T14:41:51;11.80;99.90
53410;DHT22;66590;50.734;4.246;2023-04-07T14:44:18;11.90;99.90
53410;DHT22;66590;50.734;4.246;2023-04-07T14:46:45;12.10;99.90
53410;DHT22;66590;50.734;4.246;2023-04-07T14:49:13;12.20;99.90
53410;DHT22;66590;50.734;4.246;2023-04-07T14:51:40;12.00;99.90
53410;DHT22;66590;50.734;4.246;2023-04-07T14:54:07;11.90;99.90
53410;DHT22;66590;50.734;4.246;2023-04-07T14:56:34;11.80;99.90
53410;DHT22;66590;50.734;4.246;2023-04-07T14:59:03;11.80;99.90
53410;DHT22;66590;50.734;4.246;2023-04-07T15:01:30;11.50;99.90
53410;DHT22;66590;50.734;4.246;2023-04-07T15:03:57;11.30;99.90
53410;DHT22;66590;50.734;4.246;2023-04-07T15:06:24;11.50;99.90
53410;DHT22;66590;50.734;4.246;2023-04-07T15:08:51;11.30;99.90
53410;DHT22;66590;50.734;4.246;2023-04-07T15:11:21;11.20;99.90
53410;DHT22;66590;50.734;4.246;2023-04-07T15:13:48;11.10;99.90
53410;DHT22;66590;50.734;4.246;2023-04-07T15:16:16;11.10;99.90
53410;DHT22;66590;50.734;4.246;2023-04-07T15:18:44;11.20;99.90
53410;DHT22;66590;50.734;4.246;2023-04-07T15:21:12;11.30;99.90
53410;DHT22;66590;50.734;4.246;2023-04-07T15:23:39;11.50;99.90
53410;DHT22;66590;50.734;4.246;2023-04-07T15:26:07;11.60;99.90
53410;DHT22;66590;50.734;4.246;2023-04-07T15:28:35;11.60;99.90
53410;DHT22;66590;50.734;4.246;2023-04-07T15:31:02;11.70;99.90
53410;DHT22;66590;50.734;4.246;2023-04-07T15:33:30;11.50;99.90
53410;DHT22;66590;50.734;4.246;2023-04-07T15:35:57;11.50;99.90
53410;DHT22;66590;50.734;4.246;2023-04-07T15:38:25;11.40;99.90
53410;DHT22;66590;50.734;4.246;2023-04-07T15:40:52;11.20;99.90
53410;DHT22;66590;50.734;4.246;2023-04-07T15:43:19;11.20;99.90
53410;DHT22;66590;50.734;4.246;2023-04-07T15:45:46;11.20;99.90
53410;DHT22;66590;50.734;4.246;2023-04-07T15:48:13;11.30;99.90
53410;DHT22;66590;50.734;4.246;2023-04-07T15:50:42;11.30;99.90